createdAt,value
2018-07-24T00:00:43.265Z,99.99
2018-07-24T00:01:43.981Z,99.99
2018-07-24T00:02:43.253Z,99.99
2018-07-24T00:03:43.184Z,99.99
2018-07-24T00:04:44.005Z,99.99
2018-07-24T00:05:43.170Z,99.99
2018-07-24T00:06:43.982Z,99.99
2018-07-24T00:07:43.130Z,99.99
2018-07-24T00:08:43.066Z,99.99
2018-07-24T00:09:43.985Z,99.99
2018-07-24T00:10:43.009Z,99.99
2018-07-24T00:11:42.983Z,99.99
2018-07-24T00:12:43.006Z,99.99
2018-07-24T00:13:42.945Z,99.99
2018-07-24T00:14:42.930Z,99.99
2018-07-24T00:15:43.492Z,99.99
2018-07-24T00:16:42.863Z,99.99
2018-07-24T00:17:42.894Z,99.99
2018-07-24T00:18:43.483Z,99.99
2018-07-24T00:19:42.789Z,99.99
2018-07-24T00:20:42.771Z,99.99
2018-07-24T00:21:43.482Z,99.99
2018-07-24T00:22:42.764Z,99.99
2018-07-24T00:23:42.690Z,99.99
2018-07-24T00:24:43.488Z,99.99
2018-07-24T00:25:42.639Z,99.99
2018-07-24T00:26:43.486Z,99.99
2018-07-24T00:27:42.661Z,99.99
2018-07-24T00:28:43.052Z,99.99
2018-07-24T00:29:42.544Z,99.99
2018-07-24T00:30:43.489Z,99.99
2018-07-24T00:31:42.513Z,99.99
2018-07-24T00:32:42.472Z,99.99
2018-07-24T00:33:42.538Z,99.99
2018-07-24T00:34:42.427Z,99.99
2018-07-24T00:35:42.397Z,99.99
2018-07-24T00:36:42.995Z,99.99
2018-07-24T00:37:42.349Z,99.99
2018-07-24T00:38:42.555Z,99.99
2018-07-24T00:39:42.299Z,99.99
2018-07-24T00:40:42.271Z,99.99
2018-07-24T00:41:42.252Z,99.99
2018-07-24T00:42:42.993Z,99.99
2018-07-24T00:43:42.241Z,99.99
2018-07-24T00:44:42.219Z,99.99
2018-07-24T00:45:42.992Z,99.99
2018-07-24T00:46:42.123Z,99.99
2018-07-24T00:47:42.173Z,99.99
2018-07-24T00:48:42.076Z,99.99
2018-07-24T00:49:42.091Z,99.99
2018-07-24T00:50:42.029Z,99.99
2018-07-24T00:51:42.999Z,99.99
2018-07-24T00:52:41.982Z,99.99
2018-07-24T00:53:41.950Z,99.99
2018-07-24T00:54:42.050Z,99.99
2018-07-24T00:55:41.904Z,99.99
2018-07-24T00:56:42.500Z,99.99
2018-07-24T00:57:41.854Z,99.99
2018-07-24T00:58:42.493Z,99.99
2018-07-24T00:59:41.848Z,99.99
2018-07-24T01:00:41.786Z,99.99
2018-07-24T01:01:42.510Z,99.99
2018-07-24T01:02:41.729Z,99.99
2018-07-24T01:03:41.712Z,99.99
2018-07-24T01:04:42.069Z,99.99
2018-07-24T01:05:41.660Z,99.99
2018-07-24T01:06:42.077Z,99.99
2018-07-24T01:07:41.607Z,99.99
2018-07-24T01:08:42.507Z,99.99
2018-07-24T01:09:41.608Z,99.99
2018-07-24T01:10:41.538Z,99.99
2018-07-24T01:11:42.496Z,99.99
2018-07-24T01:12:41.482Z,99.99
2018-07-24T01:13:41.995Z,99.99
2018-07-24T01:14:41.482Z,99.99
2018-07-24T01:15:41.409Z,99.99
2018-07-24T01:16:41.391Z,99.99
2018-07-24T01:17:41.998Z,99.99
2018-07-24T01:18:41.345Z,99.99
2018-07-24T01:19:41.362Z,99.99
2018-07-24T01:20:41.283Z,99.99
2018-07-24T01:21:41.996Z,99.99
2018-07-24T01:22:41.238Z,99.99
2018-07-24T01:23:41.998Z,99.99
2018-07-24T01:24:41.243Z,99.99
2018-07-24T01:25:42.007Z,99.99
2018-07-24T01:26:41.135Z,99.99
2018-07-24T01:27:41.111Z,99.99
2018-07-24T01:28:41.998Z,99.99
2018-07-24T01:29:41.119Z,99.99
2018-07-24T01:30:42.000Z,99.99
2018-07-24T01:31:41.010Z,99.99
2018-07-24T01:32:41.504Z,99.99
2018-07-24T01:33:40.961Z,99.99
2018-07-24T01:34:40.982Z,99.99
2018-07-24T01:35:41.051Z,99.99
2018-07-24T01:36:40.887Z,99.99
2018-07-24T01:37:41.409Z,99.99
2018-07-24T01:38:41.503Z,99.99
2018-07-24T01:39:40.815Z,99.99
2018-07-24T01:40:40.787Z,99.99
2018-07-24T01:41:41.049Z,99.99
2018-07-24T01:42:40.793Z,99.99
2018-07-24T01:43:40.718Z,99.99
2018-07-24T01:44:40.687Z,99.99
2018-07-24T01:45:40.667Z,99.99
2018-07-24T01:46:40.641Z,99.99
2018-07-24T01:47:40.658Z,99.99
2018-07-24T01:48:40.585Z,99.99
2018-07-24T01:49:40.560Z,99.99
2018-07-24T01:50:40.546Z,99.99
2018-07-24T01:51:40.561Z,99.99
2018-07-24T01:52:40.537Z,99.99
2018-07-24T01:53:41.006Z,99.99
2018-07-24T01:54:40.441Z,99.99
2018-07-24T01:55:43.005Z,99.99
2018-07-24T01:56:40.424Z,99.99
2018-07-24T01:57:40.367Z,99.99
2018-07-24T01:58:40.561Z,99.99
2018-07-24T01:59:40.313Z,99.99
2018-07-24T02:00:41.968Z,99.99
2018-07-24T02:01:40.265Z,99.99
2018-07-24T02:02:40.243Z,99.99
2018-07-24T02:03:40.559Z,99.99
2018-07-24T02:04:40.234Z,99.99
2018-07-24T02:05:40.162Z,99.99
2018-07-24T02:06:41.013Z,99.99
2018-07-24T02:07:40.112Z,99.99
2018-07-24T02:08:40.090Z,99.99
2018-07-24T02:09:40.101Z,99.99
2018-07-24T02:10:40.035Z,99.99
2018-07-24T02:11:40.512Z,99.99
2018-07-24T02:12:39.991Z,99.99
2018-07-24T02:13:40.510Z,99.99
2018-07-24T02:14:39.987Z,99.99
2018-07-24T02:15:40.513Z,99.99
2018-07-24T02:16:39.889Z,99.99
2018-07-24T02:17:39.862Z,99.99
2018-07-24T02:18:40.076Z,99.99
2018-07-24T02:19:39.809Z,99.99
2018-07-24T02:20:39.832Z,99.99
2018-07-24T02:21:40.513Z,99.99
2018-07-24T02:22:39.734Z,99.99
2018-07-24T02:23:39.709Z,99.99
2018-07-24T02:24:39.689Z,99.99
2018-07-24T02:25:39.711Z,99.99
2018-07-24T02:26:39.637Z,99.99
2018-07-24T02:27:39.612Z,99.99
2018-07-24T02:28:40.517Z,99.99
2018-07-24T02:29:39.603Z,99.99
2018-07-24T02:30:40.518Z,99.99
2018-07-24T02:31:39.511Z,99.99
2018-07-24T02:32:39.483Z,99.99
2018-07-24T02:33:39.507Z,99.99
2018-07-24T02:34:39.475Z,99.99
2018-07-24T02:35:39.577Z,99.99
2018-07-24T02:36:39.383Z,99.99
2018-07-24T02:37:39.573Z,99.99
2018-07-24T02:38:39.337Z,99.99
2018-07-24T02:39:39.307Z,99.99
2018-07-24T02:40:40.019Z,99.99
2018-07-24T02:41:39.327Z,99.99
2018-07-24T02:42:39.230Z,99.99
2018-07-24T02:43:39.221Z,99.99
2018-07-24T02:44:40.017Z,99.99
2018-07-24T02:45:39.230Z,99.99
2018-07-24T02:46:40.017Z,99.99
2018-07-24T02:47:39.153Z,99.99
2018-07-24T02:48:39.078Z,99.99
2018-07-24T02:49:40.029Z,99.99
2018-07-24T02:50:39.029Z,99.99
2018-07-24T02:51:39.077Z,99.99
2018-07-24T02:52:38.984Z,99.99
2018-07-24T02:53:39.524Z,99.99
2018-07-24T02:54:38.932Z,99.99
2018-07-24T02:55:38.908Z,99.99
2018-07-24T02:56:39.067Z,99.99
2018-07-24T02:57:38.858Z,99.99
2018-07-24T02:58:39.522Z,99.99
2018-07-24T02:59:38.845Z,99.99
2018-07-24T03:00:38.779Z,99.99
2018-07-24T03:01:38.797Z,99.99
2018-07-24T03:02:39.520Z,99.99
2018-07-24T03:03:38.699Z,99.99
2018-07-24T03:04:39.523Z,99.99
2018-07-24T03:05:38.655Z,99.99
2018-07-24T03:06:38.674Z,99.99
2018-07-24T03:07:38.601Z,99.99
2018-07-24T03:08:38.586Z,99.99
2018-07-24T03:09:39.522Z,99.99
2018-07-24T03:10:38.520Z,99.99
2018-07-24T03:11:38.545Z,99.99
2018-07-24T03:12:38.469Z,99.99
2018-07-24T03:13:38.584Z,99.99
2018-07-24T03:14:38.420Z,99.99
2018-07-24T03:15:39.035Z,99.99
2018-07-24T03:16:38.371Z,99.99
2018-07-24T03:17:38.343Z,99.99
2018-07-24T03:18:38.365Z,99.99
2018-07-24T03:19:39.022Z,99.99
2018-07-24T03:20:38.266Z,99.99
2018-07-24T03:21:38.242Z,99.99
2018-07-24T03:22:38.577Z,99.99
2018-07-24T03:23:38.192Z,99.99
2018-07-24T03:24:38.172Z,99.99
2018-07-24T03:25:38.578Z,99.99
2018-07-24T03:26:38.114Z,99.99
2018-07-24T03:27:39.025Z,99.99
2018-07-24T03:28:38.067Z,99.99
2018-07-24T03:29:38.085Z,99.99
2018-07-24T03:30:38.080Z,99.99
2018-07-24T03:31:37.991Z,99.99
2018-07-24T03:32:37.968Z,99.99
2018-07-24T03:33:38.527Z,99.99
2018-07-24T03:34:37.951Z,99.99
2018-07-24T03:35:37.886Z,99.99
2018-07-24T03:36:38.082Z,99.99
2018-07-24T03:37:37.841Z,99.99
2018-07-24T03:38:38.525Z,99.99
2018-07-24T03:39:37.906Z,99.99
2018-07-24T03:40:38.537Z,99.99
2018-07-24T03:41:37.732Z,99.99
2018-07-24T03:42:38.529Z,99.99
2018-07-24T03:43:37.680Z,99.99
2018-07-24T03:44:37.700Z,99.99
2018-07-24T03:45:38.082Z,99.99
2018-07-24T03:46:37.609Z,99.99
2018-07-24T03:47:38.541Z,99.99
2018-07-24T03:48:37.563Z,99.99
2018-07-24T03:49:38.030Z,99.99
2018-07-24T03:50:37.547Z,99.99
2018-07-24T03:51:37.593Z,99.99
2018-07-24T03:52:37.454Z,99.99
2018-07-24T03:53:38.031Z,99.99
2018-07-24T03:54:37.410Z,99.99
2018-07-24T03:55:38.032Z,99.99
2018-07-24T03:56:37.400Z,99.99
2018-07-24T03:57:37.338Z,99.99
2018-07-24T03:58:38.036Z,99.99
2018-07-24T03:59:37.294Z,99.99
2018-07-24T04:00:38.036Z,99.99
2018-07-24T04:01:37.281Z,99.99
2018-07-24T04:02:37.208Z,99.99
2018-07-24T04:03:38.042Z,99.99
2018-07-24T04:04:37.151Z,99.99
2018-07-24T04:05:38.048Z,99.99
2018-07-24T04:06:37.161Z,99.99
2018-07-24T04:07:38.036Z,99.99
2018-07-24T04:08:37.052Z,99.99
2018-07-24T04:09:37.044Z,99.99
2018-07-24T04:10:37.533Z,99.99
2018-07-24T04:11:37.016Z,99.99
2018-07-24T04:12:37.090Z,99.99
2018-07-24T04:13:36.927Z,99.99
2018-07-24T04:14:36.900Z,99.99
2018-07-24T04:15:37.542Z,99.99
2018-07-24T04:16:36.852Z,99.99
2018-07-24T04:17:36.874Z,99.99
2018-07-24T04:18:36.865Z,99.99
2018-07-24T04:19:37.538Z,99.99
2018-07-24T04:20:36.750Z,99.99
2018-07-24T04:21:36.728Z,99.99
2018-07-24T04:22:37.556Z,99.99
2018-07-24T04:23:36.719Z,99.99
2018-07-24T04:24:36.652Z,99.99
2018-07-24T04:25:37.540Z,99.99
2018-07-24T04:26:36.605Z,99.99
2018-07-24T04:27:36.580Z,99.99
2018-07-24T04:28:37.107Z,99.99
2018-07-24T04:29:36.528Z,99.99
2018-07-24T04:30:37.050Z,99.99
2018-07-24T04:31:36.500Z,99.99
2018-07-24T04:32:36.466Z,99.99
2018-07-24T04:33:36.603Z,99.99
2018-07-24T04:34:36.420Z,99.99
2018-07-24T04:35:36.382Z,99.99
2018-07-24T04:36:37.044Z,99.99
2018-07-24T04:37:36.376Z,99.99
2018-07-24T04:38:36.307Z,99.99
2018-07-24T04:39:37.048Z,99.99
2018-07-24T04:40:36.307Z,99.99
2018-07-24T04:41:36.235Z,99.99
2018-07-24T04:42:36.217Z,99.99
2018-07-24T04:43:36.186Z,99.99
2018-07-24T04:44:36.189Z,99.99
2018-07-24T04:45:36.187Z,99.99
2018-07-24T04:46:37.048Z,99.99
2018-07-24T04:47:36.093Z,99.99
2018-07-24T04:48:36.107Z,99.99
2018-07-24T04:49:36.038Z,99.99
2018-07-24T04:50:36.056Z,99.99
2018-07-24T04:51:36.001Z,99.99
2018-07-24T04:52:35.970Z,99.99
2018-07-24T04:53:35.988Z,99.99
2018-07-24T04:54:36.546Z,99.99
2018-07-24T04:55:35.899Z,99.99
2018-07-24T04:56:35.915Z,99.99
2018-07-24T04:57:35.849Z,99.99
2018-07-24T04:58:35.822Z,99.99
2018-07-24T04:59:36.553Z,99.99
2018-07-24T05:00:35.820Z,99.99
2018-07-24T05:01:35.749Z,99.99
2018-07-24T05:02:35.770Z,99.99
2018-07-24T05:03:36.112Z,99.99
2018-07-24T05:04:35.676Z,99.99
2018-07-24T05:05:35.652Z,99.99
2018-07-24T05:06:35.627Z,99.99
2018-07-24T05:07:35.667Z,99.99
2018-07-24T05:08:36.118Z,99.99
2018-07-24T05:09:35.595Z,99.99
2018-07-24T05:10:35.557Z,99.99
2018-07-24T05:11:35.511Z,99.99
2018-07-24T05:12:35.499Z,99.99
2018-07-24T05:13:35.621Z,99.99
2018-07-24T05:14:35.437Z,99.99
2018-07-24T05:15:35.417Z,99.99
2018-07-24T05:16:35.413Z,99.99
2018-07-24T05:17:35.376Z,99.99
2018-07-24T05:18:35.396Z,99.99
2018-07-24T05:19:35.324Z,99.99
2018-07-24T05:20:35.351Z,99.99
2018-07-24T05:21:35.276Z,99.99
2018-07-24T05:22:35.301Z,99.99
2018-07-24T05:23:35.259Z,99.99
2018-07-24T05:24:35.208Z,99.99
2018-07-24T05:25:35.183Z,99.99
2018-07-24T05:26:35.166Z,99.99
2018-07-24T05:27:35.180Z,99.99
2018-07-24T05:28:35.116Z,99.99
2018-07-24T05:29:35.110Z,99.99
2018-07-24T05:30:35.109Z,99.99
2018-07-24T05:31:35.050Z,99.99
2018-07-24T05:32:35.092Z,99.99
2018-07-24T05:33:34.998Z,99.99
2018-07-24T05:34:34.983Z,99.99
2018-07-24T05:35:35.581Z,99.99
2018-07-24T05:36:34.976Z,99.99
2018-07-24T05:37:34.917Z,99.99
2018-07-24T05:38:34.949Z,99.99
2018-07-24T05:39:34.870Z,99.99
2018-07-24T05:40:35.562Z,99.99
2018-07-24T05:41:34.826Z,99.99
2018-07-24T05:42:34.844Z,99.99
2018-07-24T05:43:34.841Z,99.99
2018-07-24T05:44:34.758Z,99.99
2018-07-24T05:45:35.562Z,99.99
2018-07-24T05:46:34.708Z,99.99
2018-07-24T05:47:34.686Z,99.99
2018-07-24T05:48:34.723Z,99.99
2018-07-24T05:49:34.644Z,99.99
2018-07-24T05:50:34.623Z,99.99
2018-07-24T05:51:34.601Z,99.99
2018-07-24T05:52:34.575Z,99.99
2018-07-24T05:53:34.594Z,99.99
2018-07-24T05:54:34.586Z,99.99
2018-07-24T05:55:34.510Z,99.99
2018-07-24T05:56:34.489Z,99.99
2018-07-24T05:57:34.464Z,99.99
2018-07-24T05:58:34.485Z,99.99
2018-07-24T05:59:34.425Z,99.99
2018-07-24T06:00:34.399Z,99.99
2018-07-24T06:01:34.379Z,99.99
2018-07-24T06:02:34.382Z,99.99
2018-07-24T06:03:34.335Z,99.99
2018-07-24T06:04:34.315Z,99.99
2018-07-24T06:05:34.337Z,99.99
2018-07-24T06:06:34.275Z,99.99
2018-07-24T06:07:34.291Z,99.99
2018-07-24T06:08:34.232Z,99.99
2018-07-24T06:09:34.202Z,99.99
2018-07-24T06:10:34.226Z,99.99
2018-07-24T06:11:34.168Z,99.99
2018-07-24T06:12:34.141Z,99.40
2018-07-24T06:13:34.165Z,99.30
2018-07-24T06:14:34.093Z,97.96
2018-07-24T06:15:34.080Z,97.67
2018-07-24T06:16:34.058Z,96.94
2018-07-24T06:17:34.034Z,97.62
2018-07-24T06:18:34.050Z,96.17
2018-07-24T06:19:33.985Z,96.17
2018-07-24T06:20:33.961Z,96.37
2018-07-24T06:21:33.941Z,96.56
2018-07-24T06:22:33.918Z,96.27
2018-07-24T06:23:33.987Z,96.27
2018-07-24T06:24:33.885Z,95.60
2018-07-24T06:25:33.855Z,95.21
2018-07-24T06:26:33.831Z,95.55
2018-07-24T06:27:33.817Z,95.94
2018-07-24T06:28:33.835Z,95.45
2018-07-24T06:29:33.767Z,94.49
2018-07-24T06:30:33.793Z,94.29
2018-07-24T06:31:33.725Z,93.43
2018-07-24T06:32:33.763Z,94.01
2018-07-24T06:33:33.680Z,93.14
2018-07-24T06:34:33.671Z,92.94
2018-07-24T06:35:33.643Z,93.43
2018-07-24T06:36:33.682Z,92.90
2018-07-24T06:37:33.598Z,92.99
2018-07-24T06:38:33.576Z,92.51
2018-07-24T06:39:33.612Z,92.32
2018-07-24T06:40:33.584Z,92.22
2018-07-24T06:41:33.515Z,91.83
2018-07-24T06:42:33.491Z,91.64
2018-07-24T06:43:33.481Z,91.45
2018-07-24T06:44:34.097Z,90.48
2018-07-24T06:45:33.482Z,90.30
2018-07-24T06:46:33.435Z,90.34
2018-07-24T06:47:33.386Z,90.20
2018-07-24T06:48:33.369Z,90.44
2018-07-24T06:49:33.399Z,89.67
2018-07-24T06:50:33.326Z,89.18
2018-07-24T06:51:33.356Z,89.57
2018-07-24T06:52:33.283Z,89.09
2018-07-24T06:53:33.266Z,88.02
2018-07-24T06:54:33.286Z,88.07
2018-07-24T06:55:33.231Z,88.31
2018-07-24T06:56:33.668Z,87.97
2018-07-24T06:57:33.180Z,87.78
2018-07-24T06:58:33.157Z,87.68
2018-07-24T06:59:33.140Z,86.43
2018-07-24T07:00:33.113Z,86.24
2018-07-24T07:01:33.636Z,86.52
2018-07-24T07:02:33.074Z,85.22
2018-07-24T07:03:33.052Z,84.64
2018-07-24T07:04:33.078Z,85.12
2018-07-24T07:05:33.010Z,85.22
2018-07-24T07:06:33.149Z,84.25
2018-07-24T07:07:32.984Z,84.64
2018-07-24T07:08:32.957Z,84.25
2018-07-24T07:09:32.973Z,84.20
2018-07-24T07:10:32.909Z,83.91
2018-07-24T07:11:32.929Z,83.81
2018-07-24T07:12:32.864Z,83.91
2018-07-24T07:13:32.896Z,84.20
2018-07-24T07:14:32.821Z,83.81
2018-07-24T07:15:32.808Z,84.10
2018-07-24T07:16:32.848Z,83.33
2018-07-24T07:17:32.764Z,83.04
2018-07-24T07:18:32.744Z,81.63
2018-07-24T07:19:32.731Z,82.02
2018-07-24T07:20:32.720Z,81.44
2018-07-24T07:21:32.702Z,81.05
2018-07-24T07:22:32.661Z,81.34
2018-07-24T07:23:32.752Z,80.95
2018-07-24T07:24:32.623Z,80.76
2018-07-24T07:25:32.617Z,80.28
2018-07-24T07:26:32.652Z,79.70
2018-07-24T07:27:32.625Z,79.45
2018-07-24T07:28:32.591Z,79.50
2018-07-24T07:29:32.534Z,80.38
2018-07-24T07:30:32.507Z,79.74
2018-07-24T07:31:32.476Z,79.64
2018-07-24T07:32:32.533Z,79.74
2018-07-24T07:33:32.436Z,79.06
2018-07-24T07:34:32.417Z,78.38
2018-07-24T07:35:32.417Z,79.06
2018-07-24T07:36:32.383Z,78.96
2018-07-24T07:37:32.502Z,79.29
2018-07-24T07:38:32.416Z,78.58
2018-07-24T07:39:32.323Z,78.19
2018-07-24T07:40:32.296Z,78.09
2018-07-24T07:41:32.278Z,77.22
2018-07-24T07:42:32.287Z,78.23
2018-07-24T07:43:32.240Z,77.94
2018-07-24T07:44:32.225Z,77.17
2018-07-24T07:45:32.209Z,76.74
2018-07-24T07:46:32.243Z,75.81
2018-07-24T07:47:32.158Z,75.71
2018-07-24T07:48:32.188Z,76.49
2018-07-24T07:49:32.158Z,77.26
2018-07-24T07:50:32.097Z,76.78
2018-07-24T07:51:32.106Z,77.07
2018-07-24T07:52:32.111Z,74.85
2018-07-24T07:53:32.042Z,75.13
2018-07-24T07:54:32.066Z,75.23
2018-07-24T07:55:32.006Z,75.04
2018-07-24T07:56:31.984Z,75.04
2018-07-24T07:57:31.961Z,75.04
2018-07-24T07:58:31.940Z,74.07
2018-07-24T07:59:31.980Z,75.07
2018-07-24T08:00:31.900Z,74.79
2018-07-24T08:01:31.880Z,74.79
2018-07-24T08:02:31.883Z,75.07
2018-07-24T08:03:31.839Z,75.07
2018-07-24T08:04:31.871Z,74.98
2018-07-24T08:05:31.847Z,75.17
2018-07-24T08:06:31.791Z,74.98
2018-07-24T08:07:31.769Z,75.17
2018-07-24T08:08:31.745Z,75.07
2018-07-24T08:09:31.769Z,74.88
2018-07-24T08:10:31.705Z,74.69
2018-07-24T08:11:31.684Z,74.01
2018-07-24T08:12:32.602Z,74.59
2018-07-24T08:13:31.696Z,73.53
2018-07-24T08:14:31.627Z,73.72
2018-07-24T08:15:31.646Z,73.63
2018-07-24T08:16:31.594Z,73.27
2018-07-24T08:17:32.095Z,73.04
2018-07-24T08:18:31.551Z,72.50
2018-07-24T08:19:31.583Z,72.56
2018-07-24T08:20:31.513Z,72.98
2018-07-24T08:21:31.531Z,72.79
2018-07-24T08:22:32.103Z,72.60
2018-07-24T08:23:31.452Z,72.69
2018-07-24T08:24:31.450Z,73.57
2018-07-24T08:25:31.464Z,73.37
2018-07-24T08:26:31.467Z,72.79
2018-07-24T08:27:31.375Z,73.37
2018-07-24T08:28:31.354Z,72.79
2018-07-24T08:29:31.376Z,72.69
2018-07-24T08:30:31.323Z,72.11
2018-07-24T08:31:31.341Z,72.89
2018-07-24T08:32:31.279Z,71.82
2018-07-24T08:33:31.321Z,72.63
2018-07-24T08:34:31.240Z,72.15
2018-07-24T08:35:31.224Z,71.76
2018-07-24T08:36:31.248Z,71.95
2018-07-24T08:37:31.190Z,71.95
2018-07-24T08:38:31.169Z,71.95
2018-07-24T08:39:31.147Z,71.18
2018-07-24T08:40:31.122Z,71.86
2018-07-24T08:41:31.149Z,71.95
2018-07-24T08:42:31.088Z,71.28
2018-07-24T08:43:31.067Z,71.56
2018-07-24T08:44:31.054Z,70.89
2018-07-24T08:45:31.053Z,71.18
2018-07-24T08:46:31.005Z,70.21
2018-07-24T08:47:31.031Z,70.40
2018-07-24T08:48:30.985Z,70.21
2018-07-24T08:49:30.950Z,70.70
2018-07-24T08:50:30.941Z,70.89
2018-07-24T08:51:30.960Z,71.08
2018-07-24T08:52:30.988Z,70.70
2018-07-24T08:53:31.184Z,70.31
2018-07-24T08:54:30.999Z,70.31
2018-07-24T08:55:31.273Z,70.25
2018-07-24T08:56:30.820Z,70.83
2018-07-24T08:57:30.799Z,70.21
2018-07-24T08:58:30.842Z,70.79
2018-07-24T08:59:30.764Z,71.02
2018-07-24T09:00:30.768Z,70.73
2018-07-24T09:01:30.722Z,69.92
2018-07-24T09:02:30.700Z,70.31
2018-07-24T09:03:30.755Z,69.95
2018-07-24T09:04:30.667Z,70.15
2018-07-24T09:05:30.648Z,70.15
2018-07-24T09:06:30.626Z,70.54
2018-07-24T09:07:30.668Z,70.25
2018-07-24T09:08:30.595Z,68.21
2018-07-24T09:09:30.621Z,68.21
2018-07-24T09:10:30.594Z,68.30
2018-07-24T09:11:30.543Z,68.79
2018-07-24T09:12:30.568Z,68.99
2018-07-24T09:13:30.505Z,69.08
2018-07-24T09:14:30.487Z,68.70
2018-07-24T09:15:30.461Z,68.54
2018-07-24T09:16:30.438Z,68.92
2018-07-24T09:17:30.462Z,68.02
2018-07-24T09:18:30.406Z,67.27
2018-07-24T09:19:30.381Z,67.66
2018-07-24T09:20:30.365Z,67.85
2018-07-24T09:21:30.346Z,68.92
2018-07-24T09:22:30.374Z,69.21
2018-07-24T09:23:30.308Z,69.02
2018-07-24T09:24:30.294Z,68.82
2018-07-24T09:25:30.280Z,67.27
2018-07-24T09:26:30.263Z,67.47
2018-07-24T09:27:30.279Z,68.08
2018-07-24T09:28:30.229Z,67.66
2018-07-24T09:29:30.209Z,67.79
2018-07-24T09:30:30.223Z,68.63
2018-07-24T09:31:30.163Z,68.73
2018-07-24T09:32:30.140Z,68.76
2018-07-24T09:33:30.197Z,68.86
2018-07-24T09:34:30.158Z,68.08
2018-07-24T09:35:30.087Z,66.92
2018-07-24T09:36:30.066Z,67.11
2018-07-24T09:37:30.047Z,67.60
2018-07-24T09:38:30.621Z,67.60
2018-07-24T09:39:30.053Z,67.79
2018-07-24T09:40:30.100Z,67.89
2018-07-24T09:41:29.976Z,67.21
2018-07-24T09:42:29.957Z,67.34
2018-07-24T09:43:30.624Z,66.95
2018-07-24T09:44:29.922Z,66.66
2018-07-24T09:45:29.944Z,65.98
2018-07-24T09:46:29.882Z,65.50
2018-07-24T09:47:29.865Z,65.50
2018-07-24T09:48:30.188Z,65.30
2018-07-24T09:49:29.836Z,65.89
2018-07-24T09:50:29.879Z,65.69
2018-07-24T09:51:29.790Z,65.69
2018-07-24T09:52:29.780Z,65.98
2018-07-24T09:53:30.182Z,66.27
2018-07-24T09:54:29.788Z,66.86
2018-07-24T09:55:29.717Z,66.27
2018-07-24T09:56:29.772Z,66.56
2018-07-24T09:57:29.702Z,65.98
2018-07-24T09:58:29.665Z,65.98
2018-07-24T09:59:29.702Z,66.17
2018-07-24T10:00:29.631Z,65.98
2018-07-24T10:01:29.625Z,65.40
2018-07-24T10:02:29.593Z,63.88
2018-07-24T10:03:29.576Z,64.33
2018-07-24T10:04:29.632Z,64.53
2018-07-24T10:05:29.563Z,63.98
2018-07-24T10:06:29.521Z,63.39
2018-07-24T10:07:29.501Z,65.05
2018-07-24T10:08:29.483Z,65.11
2018-07-24T10:09:29.522Z,64.36
2018-07-24T10:10:29.460Z,64.46
2018-07-24T10:11:29.429Z,64.56
2018-07-24T10:12:29.411Z,64.07
2018-07-24T10:13:29.451Z,63.56
2018-07-24T10:14:29.419Z,64.04
2018-07-24T10:15:29.359Z,64.17
2018-07-24T10:16:29.415Z,64.43
2018-07-24T10:17:29.363Z,63.85
2018-07-24T10:18:29.299Z,63.98
2018-07-24T10:19:29.282Z,64.26
2018-07-24T10:20:29.334Z,63.59
2018-07-24T10:21:29.249Z,63.49
2018-07-24T10:22:29.234Z,63.49
2018-07-24T10:23:29.262Z,63.29
2018-07-24T10:24:29.226Z,63.39
2018-07-24T10:25:29.196Z,63.59
2018-07-24T10:26:29.157Z,63.29
2018-07-24T10:27:29.185Z,63.20
2018-07-24T10:28:29.131Z,63.10
2018-07-24T10:29:29.155Z,63.42
2018-07-24T10:30:29.145Z,63.62
2018-07-24T10:31:29.066Z,63.42
2018-07-24T10:32:29.101Z,62.16
2018-07-24T10:33:29.030Z,63.23
2018-07-24T10:34:29.064Z,62.16
2018-07-24T10:35:28.992Z,62.35
2018-07-24T10:36:29.025Z,62.65
2018-07-24T10:37:28.957Z,62.29
2018-07-24T10:38:28.938Z,61.41
2018-07-24T10:39:28.964Z,62.00
2018-07-24T10:40:28.906Z,61.22
2018-07-24T10:41:28.884Z,62.68
2018-07-24T10:42:28.925Z,62.10
2018-07-24T10:43:28.856Z,61.71
2018-07-24T10:44:28.837Z,61.71
2018-07-24T10:45:28.817Z,61.02
2018-07-24T10:46:28.793Z,60.93
2018-07-24T10:47:28.836Z,61.02
2018-07-24T10:48:28.763Z,61.22
2018-07-24T10:49:28.748Z,61.02
2018-07-24T10:50:28.726Z,60.93
2018-07-24T10:51:28.708Z,61.90
2018-07-24T10:52:28.736Z,60.74
2018-07-24T10:53:28.686Z,60.67
2018-07-24T10:54:28.654Z,60.83
2018-07-24T10:55:29.144Z,61.02
2018-07-24T10:56:28.620Z,61.12
2018-07-24T10:57:28.661Z,61.22
2018-07-24T10:58:28.582Z,61.25
2018-07-24T10:59:28.575Z,61.35
2018-07-24T11:00:28.702Z,61.25
2018-07-24T11:01:28.536Z,61.35
2018-07-24T11:02:28.581Z,60.18
2018-07-24T11:03:28.496Z,59.95
2018-07-24T11:04:28.492Z,59.76
2018-07-24T11:05:28.710Z,60.05
2018-07-24T11:06:28.447Z,59.95
2018-07-24T11:07:28.427Z,60.35
2018-07-24T11:08:28.416Z,61.12
2018-07-24T11:09:28.399Z,61.22
2018-07-24T11:10:28.704Z,61.35
2018-07-24T11:11:28.367Z,61.54
2018-07-24T11:12:28.349Z,61.93
2018-07-24T11:13:28.326Z,60.57
2018-07-24T11:14:28.318Z,60.08
2018-07-24T11:15:28.717Z,60.28
2018-07-24T11:16:28.333Z,60.57
2018-07-24T11:17:28.257Z,60.96
2018-07-24T11:18:28.238Z,61.44
2018-07-24T11:19:28.223Z,60.57
2018-07-24T11:20:28.713Z,60.18
2018-07-24T11:21:28.184Z,60.57
2018-07-24T11:22:28.279Z,59.99
2018-07-24T11:23:28.160Z,60.18
2018-07-24T11:24:28.139Z,59.89
2018-07-24T11:25:28.166Z,59.89
2018-07-24T11:26:28.097Z,60.02
2018-07-24T11:27:28.137Z,60.60
2018-07-24T11:28:28.165Z,60.02
2018-07-24T11:29:28.089Z,60.02
2018-07-24T11:30:28.027Z,60.08
2018-07-24T11:31:28.009Z,60.08
2018-07-24T11:32:28.041Z,60.31
2018-07-24T11:33:28.039Z,60.21
2018-07-24T11:34:27.976Z,60.11
2018-07-24T11:35:27.963Z,60.60
2018-07-24T11:36:27.924Z,60.21
2018-07-24T11:37:27.964Z,59.14
2018-07-24T11:38:27.897Z,59.14
2018-07-24T11:39:27.875Z,59.72
2018-07-24T11:40:27.856Z,59.82
2018-07-24T11:41:27.836Z,58.95
2018-07-24T11:42:27.874Z,58.95
2018-07-24T11:43:27.805Z,59.05
2018-07-24T11:44:27.828Z,59.92
2018-07-24T11:45:27.816Z,59.14
2018-07-24T11:46:27.765Z,59.36
2018-07-24T11:47:27.744Z,59.36
2018-07-24T11:48:27.726Z,59.27
2018-07-24T11:49:27.704Z,58.59
2018-07-24T11:50:27.728Z,58.29
2018-07-24T11:51:27.718Z,58.00
2018-07-24T11:52:27.654Z,58.51
2018-07-24T11:53:27.640Z,58.91
2018-07-24T11:54:27.615Z,58.71
2018-07-24T11:55:27.657Z,58.22
2018-07-24T11:56:27.583Z,57.67
2018-07-24T11:57:27.572Z,57.67
2018-07-24T11:58:27.551Z,57.96
2018-07-24T11:59:27.591Z,57.28
2018-07-24T12:00:27.519Z,57.67
2018-07-24T12:01:27.548Z,57.37
2018-07-24T12:02:27.481Z,56.89
2018-07-24T12:03:27.554Z,57.09
2018-07-24T12:04:27.455Z,57.09
2018-07-24T12:05:27.446Z,56.60
2018-07-24T12:06:27.424Z,56.60
2018-07-24T12:07:27.449Z,56.50
2018-07-24T12:08:27.410Z,56.47
2018-07-24T12:09:27.417Z,57.76
2018-07-24T12:10:27.404Z,57.09
2018-07-24T12:11:27.336Z,56.47
2018-07-24T12:12:27.372Z,57.74
2018-07-24T12:13:27.373Z,57.09
2018-07-24T12:14:27.338Z,57.67
2018-07-24T12:15:27.322Z,57.57
2018-07-24T12:16:27.262Z,57.15
2018-07-24T12:17:27.239Z,57.57
2018-07-24T12:18:27.224Z,57.06
2018-07-24T12:19:27.267Z,56.86
2018-07-24T12:20:27.192Z,57.45
2018-07-24T12:21:27.188Z,57.25
2018-07-24T12:22:27.160Z,57.35
2018-07-24T12:23:27.179Z,57.45
2018-07-24T12:24:27.172Z,57.45
2018-07-24T12:25:27.108Z,57.25
2018-07-24T12:26:27.102Z,56.76
2018-07-24T12:27:27.085Z,56.86
2018-07-24T12:28:27.681Z,56.86
2018-07-24T12:29:27.093Z,56.67
2018-07-24T12:30:27.029Z,57.45
2018-07-24T12:31:27.027Z,57.35
2018-07-24T12:32:27.053Z,57.45
2018-07-24T12:33:27.679Z,58.22
2018-07-24T12:34:26.961Z,57.47
2018-07-24T12:35:26.948Z,56.70
2018-07-24T12:36:26.927Z,55.82
2018-07-24T12:37:27.007Z,56.70
2018-07-24T12:38:27.678Z,56.50
2018-07-24T12:39:26.891Z,56.60
2018-07-24T12:40:26.863Z,56.52
2018-07-24T12:41:26.893Z,55.55
2018-07-24T12:42:26.829Z,55.43
2018-07-24T12:43:28.126Z,55.55
2018-07-24T12:44:26.802Z,55.65
2018-07-24T12:45:26.790Z,55.75
2018-07-24T12:46:26.770Z,55.65
2018-07-24T12:47:26.755Z,56.04
2018-07-24T12:48:26.788Z,55.55
2018-07-24T12:49:26.719Z,56.04
2018-07-24T12:50:26.702Z,55.85
2018-07-24T12:51:26.741Z,55.87
2018-07-24T12:52:26.694Z,56.16